Time;durP1;ratioP1;P1;durP2;ratioP2;P2;SDS_P1;SDS_P2;PMS_P1;PMS_P2;Temp;Humidity;BMP_temperature;BMP_pressure;BME280_temperature;BME280_humidity;BME280_pressure;Samples;Min_cycle;Max_cycle;Signal;HPM_P1;HPM_P2
2022/07/16 00:03:45;;;;;;;6.43;4.90;;;12.20;75.10;;;;;;5020425;28;20448;-86
2022/07/16 00:06:21;;;;;;;7.07;6.10;;;12.20;76.10;;;;;;5000562;28;20485;-86
2022/07/16 00:11:59;;;;;;;9.93;9.13;;;12.10;76.20;;;;;;5017865;28;20485;-87
2022/07/16 00:15:03;;;;;;;19.40;10.70;;;12.00;77.70;;;;;;5019931;28;20449;-87
2022/07/16 00:23:18;;;;;;;20.40;19.20;;;11.90;80.80;;;;;;5018734;28;20655;-86
2022/07/16 00:25:49;;;;;;;18.23;17.23;;;11.90;82.50;;;;;;5019619;28;20927;-86
2022/07/16 00:28:43;;;;;;;17.30;16.30;;;11.90;81.30;;;;;;5019327;28;20466;-86
2022/07/16 00:31:22;;;;;;;12.33;11.37;;;12.00;81.10;;;;;;5019911;28;20464;-86
2022/07/16 00:34:03;;;;;;;15.03;10.90;;;11.90;78.70;;;;;;5020403;28;20453;-86
2022/07/16 00:36:43;;;;;;;11.07;10.27;;;11.80;78.60;;;;;;5019787;28;20457;-86
2022/07/16 00:39:20;;;;;;;15.13;14.07;;;11.80;78.70;;;;;;5019819;28;20460;-86
2022/07/16 00:45:14;;;;;;;15.03;13.70;;;11.70;80.40;;;;;;5005258;28;20445;-86
2022/07/16 00:48:00;;;;;;;19.80;16.90;;;11.60;82.70;;;;;;5018768;28;20480;-86
2022/07/16 00:51:03;;;;;;;21.23;20.13;;;11.40;84.00;;;;;;5019339;28;20520;-86
2022/07/16 00:54:04;;;;;;;18.87;17.77;;;11.50;85.00;;;;;;5018188;28;20467;-86
2022/07/16 00:57:00;;;;;;;26.37;24.77;;;11.60;87.00;;;;;;5003395;28;20492;-87
2022/07/16 00:59:56;;;;;;;27.23;25.63;;;11.70;88.00;;;;;;5018604;28;20454;-85
2022/07/16 01:02:44;;;;;;;27.47;25.97;;;11.70;86.90;;;;;;5015224;28;20485;-86
2022/07/16 01:05:11;;;;;;;17.87;16.57;;;11.80;85.90;;;;;;5019834;28;20449;-86
2022/07/16 01:07:48;;;;;;;18.67;17.40;;;11.90;83.20;;;;;;5019184;28;20527;-86
2022/07/16 01:10:31;;;;;;;17.17;15.97;;;12.10;82.90;;;;;;5019292;28;20515;-86
2022/07/16 01:13:28;;;;;;;15.63;14.73;;;11.90;82.20;;;;;;5001141;28;20473;-86
2022/07/16 01:16:10;;;;;;;17.20;10.03;;;11.70;82.10;;;;;;5003054;28;20481;-86
2022/07/16 01:18:41;;;;;;;13.23;12.10;;;11.80;81.80;;;;;;5019273;28;20480;-86
2022/07/16 01:21:36;;;;;;;14.83;13.70;;;11.70;82.60;;;;;;5018806;28;20453;-86
2022/07/16 01:24:34;;;;;;;19.30;18.00;;;11.40;83.70;;;;;;5018159;28;20449;-86
2022/07/16 01:27:10;;;;;;;16.77;15.70;;;11.60;84.90;;;;;;4939206;29;20453;-87
2022/07/16 01:29:46;;;;;;;25.87;24.27;;;11.40;85.90;;;;;;5007484;28;20499;-86
2022/07/16 01:32:13;;;;;;;29.40;27.77;;;11.50;86.00;;;;;;5020226;28;20476;-87
2022/07/16 01:34:42;;;;;;;35.20;33.53;;;11.30;87.70;;;;;;5019865;28;20445;-86
2022/07/16 01:37:14;;;;;;;33.47;31.77;;;11.40;88.90;;;;;;5019212;28;20536;-87
2022/07/16 01:40:01;;;;;;;31.10;29.40;;;11.30;88.60;;;;;;5019850;28;20465;-86
2022/07/16 01:42:59;;;;;;;29.03;27.43;;;11.20;87.90;;;;;;5018989;28;20488;-86
2022/07/16 01:51:10;;;;;;;68.70;64.57;;;11.20;90.60;;;;;;5011180;28;20450;-86
2022/07/16 01:53:48;;;;;;;59.20;56.47;;;11.10;91.10;;;;;;5019237;28;20465;-87
2022/07/16 01:56:22;;;;;;;63.63;60.90;;;11.00;91.40;;;;;;5019686;28;20453;-87
2022/07/16 01:59:00;;;;;;;60.60;58.07;;;11.10;91.40;;;;;;5019639;28;20444;-86
2022/07/16 02:01:57;;;;;;;78.60;75.50;;;11.20;91.50;;;;;;5019446;28;20473;-86
2022/07/16 02:04:53;;;;;;;106.27;102.10;;;11.40;91.50;;;;;;4999381;28;20485;-86
2022/07/16 02:07:26;;;;;;;61.37;58.50;;;11.70;91.40;;;;;;5003635;28;20469;-86
2022/07/16 02:10:03;;;;;;;37.40;35.60;;;11.90;89.80;;;;;;5019237;28;20457;-87
2022/07/16 02:13:02;;;;;;;20.83;19.43;;;12.10;85.50;;;;;;5017979;28;21008;-86
2022/07/16 02:18:39;;;;;;;17.60;9.87;;;12.50;81.70;;;;;;5015441;28;20537;-86
2022/07/16 02:21:26;;;;;;;11.63;10.63;;;12.60;80.70;;;;;;5018488;28;20461;-85
2022/07/16 02:24:23;;;;;;;12.30;7.70;;;12.70;80.00;;;;;;5022013;28;20445;-87
2022/07/16 02:27:05;;;;;;;9.50;8.43;;;12.80;79.50;;;;;;5022113;28;20949;-87
2022/07/16 02:29:39;;;;;;;7.67;6.60;;;12.90;78.70;;;;;;5002692;28;20456;-87
2022/07/16 02:32:11;;;;;;;8.40;6.13;;;12.90;77.90;;;;;;5004295;28;20485;-86
2022/07/16 02:34:56;;;;;;;10.23;7.07;;;12.90;77.90;;;;;;5023112;28;20768;-86
2022/07/16 02:37:30;;;;;;;6.57;5.30;;;12.90;78.80;;;;;;5021607;28;20449;-87
2022/07/16 02:40:01;;;;;;;10.00;6.33;;;12.70;77.30;;;;;;5023529;28;20873;-86
2022/07/16 02:42:49;;;;;;;11.30;7.90;;;12.70;78.60;;;;;;5021872;28;20465;-86
2022/07/16 02:45:20;;;;;;;9.30;8.20;;;12.70;79.40;;;;;;5021653;28;20476;-86
2022/07/16 02:48:00;;;;;;;10.77;7.70;;;12.80;79.50;;;;;;5022433;28;20480;-86
2022/07/16 02:53:39;;;;;;;11.30;7.47;;;12.80;79.50;;;;;;5019191;28;20515;-86
2022/07/16 02:56:23;;;;;;;8.57;7.70;;;12.90;78.80;;;;;;5022202;28;20445;-86
2022/07/16 03:02:42;;;;;;;10.10;5.67;;;13.00;78.70;;;;;;5020182;28;20472;-86
2022/07/16 03:05:22;;;;;;;7.60;6.73;;;13.20;77.60;;;;;;5022391;28;20471;-87
2022/07/16 03:08:01;;;;;;;10.27;6.33;;;13.30;76.50;;;;;;5022625;28;20473;-86
2022/07/16 03:10:43;;;;;;;6.80;5.13;;;13.40;75.10;;;;;;5021973;28;20456;-87
2022/07/16 03:13:15;;;;;;;8.90;5.50;;;13.50;74.80;;;;;;5020947;28;20468;-86
2022/07/16 03:15:48;;;;;;;9.23;5.13;;;13.60;74.20;;;;;;5020953;28;20463;-86
2022/07/16 03:18:24;;;;;;;9.70;5.17;;;13.60;73.50;;;;;;5022018;28;20875;-86
2022/07/16 03:21:01;;;;;;;9.43;5.40;;;13.60;72.70;;;;;;5021737;28;20950;-86
2022/07/16 03:24:10;;;;;;;9.70;5.63;;;13.80;72.50;;;;;;5019305;28;20457;-87
2022/07/16 03:26:55;;;;;;;7.50;4.77;;;13.90;72.60;;;;;;5019974;28;20460;-87
2022/07/16 03:29:48;;;;;;;6.67;3.63;;;14.00;71.80;;;;;;5019927;28;20582;-86
2022/07/16 03:32:29;;;;;;;6.80;3.73;;;14.00;70.50;;;;;;5018168;28;20473;-86
2022/07/16 03:35:04;;;;;;;8.27;3.97;;;14.10;69.80;;;;;;5017657;28;20519;-86
2022/07/16 03:40:24;;;;;;;9.90;4.50;;;14.10;69.40;;;;;;5017648;28;20520;-86
2022/07/16 03:42:51;;;;;;;7.60;3.77;;;14.10;69.10;;;;;;5017998;28;20514;-86
2022/07/16 03:45:45;;;;;;;;;;;;;;;;;;;;;
2022/07/16 03:48:28;;;;;;;11.57;3.80;;;14.10;67.30;;;;;;5019222;28;20548;-86
2022/07/16 03:54:11;;;;;;;5.70;3.30;;;14.20;66.90;;;;;;5018643;28;20461;-85
2022/07/16 03:56:44;;;;;;;10.03;4.73;;;14.30;66.70;;;;;;5019733;28;20445;-87
2022/07/16 03:59:33;;;;;;;7.43;3.13;;;14.30;67.00;;;;;;5019558;28;20472;-86
2022/07/16 04:02:05;;;;;;;7.87;3.43;;;14.20;67.80;;;;;;5019232;28;20476;-85
2022/07/16 04:04:32;;;;;;;9.37;3.83;;;14.30;67.60;;;;;;5024772;28;20480;-83
2022/07/16 04:07:19;;;;;;;9.40;4.13;;;14.40;67.70;;;;;;5019034;28;20449;-84
2022/07/16 04:09:46;;;;;;;9.17;4.00;;;14.40;68.30;;;;;;5018499;28;20555;-82
2022/07/16 04:12:16;;;;;;;7.63;3.67;;;14.30;67.90;;;;;;5017468;28;20542;-84
2022/07/16 04:14:43;;;;;;;9.90;3.37;;;14.30;66.80;;;;;;5018223;28;20450;-84
2022/07/16 04:17:09;;;;;;;7.83;3.90;;;14.40;65.70;;;;;;5019650;28;20677;-84
2022/07/16 04:20:01;;;;;;;5.63;2.93;;;14.40;65.00;;;;;;5017198;28;21040;-85
2022/07/16 04:22:29;;;;;;;8.30;4.20;;;14.40;65.50;;;;;;5002831;28;20470;-84
2022/07/16 04:24:58;;;;;;;6.10;3.60;;;14.50;65.10;;;;;;5011426;28;20568;-84
2022/07/16 04:27:24;;;;;;;9.43;4.50;;;14.50;65.90;;;;;;5027643;28;20453;-83
2022/07/16 04:29:51;;;;;;;8.70;3.70;;;14.50;64.70;;;;;;5028687;28;20477;-84
2022/07/16 04:32:18;;;;;;;8.30;3.20;;;14.60;64.10;;;;;;5029394;28;20467;-84
2022/07/16 04:34:45;;;;;;;8.53;2.77;;;14.60;62.00;;;;;;5028907;28;20456;-84
2022/07/16 04:37:12;;;;;;;7.30;3.50;;;14.60;61.40;;;;;;5028340;28;20453;-84
2022/07/16 04:39:40;;;;;;;8.47;2.90;;;14.70;60.60;;;;;;5029194;28;20449;-84
2022/07/16 04:42:07;;;;;;;13.60;3.33;;;14.80;59.80;;;;;;5027628;28;20495;-84
2022/07/16 04:44:34;;;;;;;5.30;2.70;;;14.90;59.50;;;;;;5026295;28;20528;-83
2022/07/16 04:47:00;;;;;;;5.70;3.07;;;15.00;59.20;;;;;;5012951;28;20490;-84
2022/07/16 04:49:27;;;;;;;6.57;3.33;;;15.20;58.90;;;;;;5029111;28;20469;-83
2022/07/16 04:51:54;;;;;;;13.67;7.17;;;15.20;57.50;;;;;;5027859;28;20471;-83
2022/07/16 04:54:21;;;;;;;7.17;3.93;;;15.30;58.40;;;;;;5027024;28;20535;-85
2022/07/16 04:56:49;;;;;;;8.67;4.00;;;15.40;58.10;;;;;;5028372;28;20449;-83
2022/07/16 04:59:16;;;;;;;6.67;3.13;;;15.40;57.50;;;;;;5027659;28;20456;-82
2022/07/16 05:01:42;;;;;;;8.70;3.97;;;15.50;57.70;;;;;;5029295;28;20473;-83
2022/07/16 05:04:09;;;;;;;7.13;3.20;;;15.60;56.80;;;;;;5028038;28;20453;-82
2022/07/16 05:06:36;;;;;;;9.73;2.93;;;15.60;56.40;;;;;;5028655;28;20452;-83
2022/07/16 05:09:03;;;;;;;6.63;2.50;;;15.70;56.70;;;;;;5028412;28;20473;-83
2022/07/16 05:11:30;;;;;;;5.47;3.07;;;15.80;55.30;;;;;;5028479;28;20470;-83
2022/07/16 05:13:58;;;;;;;5.30;2.60;;;15.90;54.60;;;;;;5029440;28;20462;-82
2022/07/16 05:16:25;;;;;;;10.27;3.37;;;16.00;54.20;;;;;;5028768;28;20462;-83
2022/07/16 05:18:52;;;;;;;5.80;2.93;;;16.10;54.10;;;;;;5027893;28;20441;-83
2022/07/16 05:21:19;;;;;;;10.00;3.77;;;16.10;53.10;;;;;;5028419;28;20532;-84
2022/07/16 05:23:46;;;;;;;7.33;3.70;;;16.30;53.00;;;;;;5029055;28;20450;-81
2022/07/16 05:26:12;;;;;;;9.20;4.07;;;16.40;51.80;;;;;;5027580;28;20453;-83
2022/07/16 05:28:39;;;;;;;7.07;2.67;;;16.50;50.00;;;;;;5028806;28;20488;-83
2022/07/16 05:31:09;;;;;;;8.03;2.43;;;16.50;50.00;;;;;;5027825;28;20527;-84
2022/07/16 05:33:36;;;;;;;7.60;3.40;;;16.70;50.20;;;;;;5008251;28;20463;-82
2022/07/16 05:36:03;;;;;;;6.83;2.83;;;16.80;50.20;;;;;;5007954;28;20464;-84
2022/07/16 05:38:31;;;;;;;9.33;3.00;;;16.90;47.80;;;;;;5008292;28;20458;-84
2022/07/16 05:40:58;;;;;;;4.60;2.17;;;17.00;46.20;;;;;;5020595;28;20456;-83
2022/07/16 05:43:24;;;;;;;5.97;2.87;;;17.20;46.20;;;;;;5025060;28;21034;-84
2022/07/16 05:45:55;;;;;;;6.60;3.00;;;17.30;44.90;;;;;;5021483;28;20456;-84
2022/07/16 05:48:27;;;;;;;6.97;3.10;;;17.50;46.30;;;;;;5022363;28;20503;-84
2022/07/16 05:50:56;;;;;;;7.00;2.63;;;17.60;43.30;;;;;;5022047;28;20450;-85
2022/07/16 06:00:59;;;;;;;;;;;;;;;;;;;;;
2022/07/16 06:14:27;;;;;;;8.27;4.10;;;17.60;40.00;;;;;;5123771;22;20498;-87
2022/07/16 06:17:13;;;;;;;7.07;3.20;;;17.50;41.10;;;;;;4974853;28;20975;-88
2022/07/16 06:19:54;;;;;;;10.20;3.30;;;17.50;42.70;;;;;;5009288;28;20786;-87
2022/07/16 06:22:24;;;;;;;5.93;3.10;;;17.40;42.00;;;;;;5055473;28;20897;-87
2022/07/16 06:25:24;;;;;;;7.67;2.97;;;17.50;42.50;;;;;;5053989;28;20449;-88
2022/07/16 06:28:08;;;;;;;9.23;3.50;;;17.50;42.30;;;;;;5057170;28;20997;-88
2022/07/16 06:31:11;;;;;;;;;;;;;;;;;;;;;
2022/07/16 06:36:26;;;;;;;8.77;3.73;;;17.80;40.70;;;;;;5014566;28;20450;-85
2022/07/16 06:38:53;;;;;;;7.93;4.10;;;18.20;41.20;;;;;;5028483;28;20456;-84
2022/07/16 06:41:20;;;;;;;7.50;3.40;;;18.30;42.80;;;;;;5069800;28;20451;-86
2022/07/16 06:43:48;;;;;;;15.63;4.10;;;18.50;41.20;;;;;;5069767;28;20445;-85
2022/07/16 06:46:21;;;;;;;8.10;4.00;;;19.10;39.30;;;;;;5047811;28;20450;-87
2022/07/16 06:48:49;;;;;;;6.13;3.80;;;19.10;39.50;;;;;;5042706;28;20496;-86
2022/07/16 06:51:16;;;;;;;12.50;3.37;;;19.40;38.20;;;;;;5037145;28;20460;-83
2022/07/16 06:53:43;;;;;;;16.90;4.50;;;19.40;38.50;;;;;;5035333;28;20485;-83
2022/07/16 06:56:10;;;;;;;9.33;4.60;;;19.60;39.10;;;;;;5055937;28;20451;-83
2022/07/16 06:58:37;;;;;;;7.77;2.87;;;19.80;39.30;;;;;;5054870;28;20815;-83
2022/07/16 07:01:05;;;;;;;8.90;4.47;;;20.00;38.50;;;;;;5033356;28;20457;-84
2022/07/16 07:03:32;;;;;;;6.70;3.87;;;20.30;37.90;;;;;;5035628;28;20673;-83
2022/07/16 07:06:03;;;;;;;13.83;5.30;;;20.20;37.20;;;;;;5055334;28;20455;-84
2022/07/16 07:19:06;;;;;;;7.03;4.17;;;20.20;40.70;;;;;;4879533;29;20537;-84
2022/07/16 07:21:33;;;;;;;6.90;4.27;;;20.30;39.00;;;;;;5019172;28;20511;-85
2022/07/16 07:24:02;;;;;;;7.43;3.73;;;20.20;41.80;;;;;;5021731;28;20466;-87
2022/07/16 07:26:28;;;;;;;7.80;4.40;;;20.20;40.90;;;;;;5040940;28;20457;-84
2022/07/16 07:32:01;;;;;;;7.50;4.20;;;20.00;42.40;;;;;;5059822;28;20465;-86
2022/07/16 07:34:30;;;;;;;9.10;5.20;;;19.80;42.60;;;;;;5047184;28;20596;-84
2022/07/16 07:36:56;;;;;;;10.40;5.60;;;20.10;44.30;;;;;;5059872;28;20451;-87
2022/07/16 07:39:23;;;;;;;9.37;4.37;;;20.50;42.20;;;;;;5049104;28;20202;-83
2022/07/16 07:41:50;;;;;;;7.50;4.23;;;20.40;41.00;;;;;;5059561;28;20467;-84
2022/07/16 07:44:17;;;;;;;6.03;3.03;;;20.40;40.60;;;;;;5048316;28;20546;-83
2022/07/16 07:46:44;;;;;;;10.93;5.33;;;20.60;39.90;;;;;;5043402;28;20448;-84
2022/07/16 07:49:19;;;;;;;10.97;4.53;;;21.20;40.00;;;;;;5054915;28;20485;-85
2022/07/16 07:51:48;;;;;;;8.13;4.30;;;21.30;37.20;;;;;;5059734;28;20472;-85
2022/07/16 07:54:35;;;;;;;8.27;5.70;;;21.10;35.70;;;;;;5050872;28;20452;-86
2022/07/16 07:57:38;;;;;;;7.50;3.80;;;21.00;37.70;;;;;;5036443;28;20461;-85
2022/07/16 08:03:06;;;;;;;8.57;4.97;;;20.80;39.00;;;;;;4970099;28;20472;-83
2022/07/16 08:05:45;;;;;;;9.23;3.90;;;21.20;38.40;;;;;;5040316;28;20449;-85
2022/07/16 08:08:14;;;;;;;5.83;2.90;;;21.20;39.80;;;;;;5048125;28;20194;-85
2022/07/16 08:10:40;;;;;;;6.13;3.20;;;21.60;37.50;;;;;;5063762;28;20554;-85
2022/07/16 08:13:08;;;;;;;6.60;3.50;;;21.60;36.80;;;;;;5061266;28;20534;-84
2022/07/16 08:15:35;;;;;;;7.50;3.30;;;22.10;34.30;;;;;;5050056;28;20478;-81
2022/07/16 08:18:01;;;;;;;13.40;3.60;;;22.80;37.60;;;;;;5041028;28;20950;-86
2022/07/16 08:20:28;;;;;;;6.40;3.73;;;22.70;32.10;;;;;;5048814;28;20451;-85
2022/07/16 08:22:55;;;;;;;8.90;3.60;;;22.30;33.90;;;;;;5037425;28;20558;-85
2022/07/16 08:28:08;;;;;;;5.13;2.17;;;21.80;34.30;;;;;;5055669;28;20447;-86
2022/07/16 08:30:35;;;;;;;13.63;3.43;;;21.60;35.10;;;;;;5044520;28;20481;-85
2022/07/16 08:33:01;;;;;;;5.90;2.40;;;21.40;35.90;;;;;;5045765;28;20480;-85
2022/07/16 08:35:28;;;;;;;7.60;4.90;;;21.40;35.20;;;;;;5063169;28;20458;-85
2022/07/16 08:37:55;;;;;;;7.97;2.37;;;20.90;36.10;;;;;;5023345;28;20457;-85
2022/07/16 08:40:24;;;;;;;5.97;2.60;;;20.60;37.10;;;;;;5025262;28;20455;-85
2022/07/16 08:42:51;;;;;;;7.17;2.13;;;20.50;35.80;;;;;;5062313;28;20542;-85
2022/07/16 08:45:21;;;;;;;4.47;1.50;;;20.80;34.70;;;;;;5064825;28;20454;-85
2022/07/16 08:47:49;;;;;;;4.10;1.40;;;21.40;35.10;;;;;;5044646;28;20452;-85
2022/07/16 08:50:16;;;;;;;6.37;1.80;;;21.40;32.80;;;;;;5042910;28;20523;-85
2022/07/16 08:52:44;;;;;;;7.13;1.77;;;21.40;31.90;;;;;;5060092;28;20493;-85
2022/07/16 08:55:12;;;;;;;4.10;1.40;;;21.10;29.50;;;;;;5062975;28;20458;-85
2022/07/16 08:57:41;;;;;;;4.10;1.20;;;21.30;28.80;;;;;;5047721;28;20521;-85
2022/07/16 09:00:12;;;;;;;4.43;1.50;;;21.60;27.40;;;;;;5043791;28;20475;-85
2022/07/16 09:02:39;;;;;;;3.80;1.13;;;21.50;27.30;;;;;;5055365;28;20466;-88
2022/07/16 09:05:07;;;;;;;4.20;1.40;;;21.50;25.30;;;;;;5054440;28;20455;-85
2022/07/16 09:07:34;;;;;;;6.00;1.47;;;22.00;23.60;;;;;;5058085;28;20463;-87
2022/07/16 09:10:01;;;;;;;7.53;1.60;;;22.40;21.50;;;;;;5057570;28;20472;-85
2022/07/16 09:12:37;;;;;;;6.70;1.23;;;22.30;22.20;;;;;;5043846;28;20478;-85
2022/07/16 09:15:30;;;;;;;4.73;1.00;;;22.20;18.90;;;;;;5034189;28;20466;-84
2022/07/16 09:18:17;;;;;;;4.20;1.43;;;22.40;16.30;;;;;;5049676;28;20461;-84
2022/07/16 09:20:49;;;;;;;4.47;0.87;;;22.30;12.00;;;;;;5052759;28;20841;-85
2022/07/16 09:23:35;;;;;;;4.80;0.97;;;22.10;6.70;;;;;;5040668;28;20476;-84
2022/07/16 09:26:04;;;;;;;4.03;1.10;;;22.20;8.30;;;;;;5033492;28;20469;-84
2022/07/16 09:28:40;;;;;;;3.80;0.93;;;22.70;10.90;;;;;;5048025;28;20458;-85
2022/07/16 09:31:08;;;;;;;3.60;0.73;;;22.90;10.10;;;;;;5052577;28;20990;-85
2022/07/16 09:33:35;;;;;;;12.40;1.40;;;22.90;6.60;;;;;;5046890;28;20461;-84
2022/07/16 09:36:07;;;;;;;5.20;1.00;;;23.90;7.30;;;;;;5036910;28;20472;-83
2022/07/16 09:38:51;;;;;;;4.90;1.77;;;23.90;7.30;;;;;;5033522;28;20453;-85
2022/07/16 09:41:18;;;;;;;4.20;1.47;;;23.00;6.70;;;;;;5033011;28;20455;-85
2022/07/16 09:43:46;;;;;;;4.10;1.00;;;23.10;8.40;;;;;;5046255;28;20530;-82
2022/07/16 09:46:18;;;;;;;3.93;0.90;;;23.00;9.70;;;;;;5037827;28;20822;-85
2022/07/16 09:48:46;;;;;;;6.57;1.10;;;22.90;12.30;;;;;;5046018;28;20454;-85
2022/07/16 09:51:21;;;;;;;5.90;1.17;;;23.40;9.20;;;;;;5052369;28;20502;-83
2022/07/16 09:53:50;;;;;;;9.10;1.70;;;24.40;7.70;;;;;;5039486;28;20452;-83
2022/07/16 09:56:17;;;;;;;4.27;1.07;;;25.30;8.30;;;;;;5041622;28;20990;-85
2022/07/16 09:58:49;;;;;;;5.90;1.50;;;24.60;4.10;;;;;;5052739;28;20459;-85
2022/07/16 10:01:18;;;;;;;3.73;0.83;;;24.50;2.50;;;;;;5044246;28;20448;-85
2022/07/16 10:03:46;;;;;;;3.83;1.03;;;24.50;3.10;;;;;;5033239;28;20906;-84
2022/07/16 10:06:14;;;;;;;4.67;1.07;;;24.70;1.00;;;;;;5042961;28;20460;-84
2022/07/16 10:08:43;;;;;;;4.00;1.10;;;24.00;2.10;;;;;;5049901;28;20447;-84
2022/07/16 10:11:11;;;;;;;4.40;1.30;;;24.80;3.70;;;;;;5058742;28;20487;-86
2022/07/16 10:13:42;;;;;;;5.90;1.60;;;25.30;1.40;;;;;;5038949;28;20861;-84
2022/07/16 10:16:09;;;;;;;4.97;1.30;;;25.70;1.00;;;;;;5034577;28;20443;-85
2022/07/16 10:18:40;;;;;;;4.23;1.10;;;24.70;1.00;;;;;;5033331;28;20967;-87
2022/07/16 10:21:13;;;;;;;4.57;1.00;;;24.80;1.00;;;;;;5033455;28;20448;-86
2022/07/16 10:23:41;;;;;;;4.30;1.10;;;24.90;1.00;;;;;;5047111;28;20835;-84
2022/07/16 10:26:09;;;;;;;4.00;1.00;;;25.70;1.00;;;;;;5053024;28;20451;-84
2022/07/16 10:28:38;;;;;;;4.30;1.20;;;24.50;1.00;;;;;;5039662;28;20451;-85
2022/07/16 10:31:36;;;;;;;6.73;1.30;;;24.80;1.10;;;;;;5034196;28;20491;-86
2022/07/16 10:34:33;;;;;;;3.90;0.90;;;25.00;1.40;;;;;;5038757;28;20520;-87
2022/07/16 10:37:00;;;;;;;4.40;1.10;;;25.50;1.00;;;;;;5027601;28;20456;-86
2022/07/16 10:39:28;;;;;;;13.93;1.50;;;24.80;1.00;;;;;;5033101;28;20456;-84
2022/07/16 10:41:56;;;;;;;3.90;0.90;;;24.80;1.90;;;;;;5042573;28;21007;-84
2022/07/16 10:44:25;;;;;;;8.27;1.10;;;25.30;1.30;;;;;;5046547;28;20448;-83
2022/07/16 10:46:53;;;;;;;4.50;1.17;;;25.60;1.00;;;;;;5036293;28;20460;-84
2022/07/16 10:49:21;;;;;;;4.50;1.10;;;24.20;1.20;;;;;;5043676;28;20766;-83
2022/07/16 10:52:00;;;;;;;4.60;1.30;;;23.50;3.40;;;;;;5056152;28;20986;-84
2022/07/16 10:54:31;;;;;;;4.10;1.00;;;24.00;6.60;;;;;;5055293;28;20541;-80
2022/07/16 10:57:00;;;;;;;4.10;1.20;;;24.90;2.60;;;;;;5045156;28;20456;-80
2022/07/16 10:59:29;;;;;;;4.30;1.30;;;25.20;2.00;;;;;;5045516;28;20458;-80
2022/07/16 11:01:58;;;;;;;6.70;1.50;;;25.80;1.00;;;;;;5057127;28;20545;-80
2022/07/16 11:04:34;;;;;;;4.57;1.17;;;25.50;1.00;;;;;;5049993;28;20438;-81
2022/07/16 11:07:05;;;;;;;4.80;1.20;;;25.20;1.00;;;;;;5037143;28;20451;-80
2022/07/16 11:09:32;;;;;;;5.90;1.20;;;25.50;1.00;;;;;;5038987;28;20452;-81
2022/07/16 11:12:15;;;;;;;4.73;1.37;;;24.80;1.00;;;;;;5037076;28;20478;-81
2022/07/16 11:14:46;;;;;;;6.60;1.63;;;26.10;1.00;;;;;;5046545;28;20516;-84
2022/07/16 11:17:27;;;;;;;5.40;1.10;;;27.20;1.00;;;;;;5056854;28;20803;-85
2022/07/16 11:20:00;;;;;;;4.57;1.30;;;26.90;1.00;;;;;;5045556;28;20543;-86
2022/07/16 11:22:30;;;;;;;8.23;1.23;;;27.30;1.00;;;;;;5051181;28;20471;-84
2022/07/16 11:24:59;;;;;;;6.10;1.13;;;27.80;1.00;;;;;;5059240;28;20447;-84
2022/07/16 11:27:28;;;;;;;4.20;0.90;;;27.20;1.00;;;;;;5054059;28;20511;-84
2022/07/16 11:29:56;;;;;;;4.40;1.23;;;25.20;1.00;;;;;;5042886;28;21074;-84
2022/07/16 11:32:23;;;;;;;4.47;1.00;;;24.60;1.00;;;;;;5051615;28;20468;-83
2022/07/16 11:34:50;;;;;;;5.77;1.50;;;24.90;1.00;;;;;;5063143;28;20451;-83
2022/07/16 11:37:16;;;;;;;4.17;1.10;;;25.20;1.00;;;;;;5048137;28;20834;-83
2022/07/16 11:39:45;;;;;;;4.17;1.07;;;25.60;1.00;;;;;;5054933;28;20422;-82
2022/07/16 11:42:11;;;;;;;5.13;1.57;;;26.90;1.00;;;;;;5061024;28;20486;-82
2022/07/16 11:44:40;;;;;;;4.77;1.20;;;27.60;1.00;;;;;;5051395;28;20444;-83
2022/07/16 11:47:08;;;;;;;5.20;1.27;;;26.60;1.00;;;;;;5040701;28;20475;-83
2022/07/16 11:49:37;;;;;;;4.23;0.93;;;25.70;1.00;;;;;;5045166;28;20666;-84
2022/07/16 11:52:08;;;;;;;4.33;1.27;;;24.70;1.00;;;;;;5049368;28;20841;-84
2022/07/16 11:54:37;;;;;;;3.90;0.93;;;24.50;1.00;;;;;;5034610;28;20807;-84
2022/07/16 11:57:07;;;;;;;6.03;0.83;;;25.20;1.00;;;;;;5035517;28;20463;-85
2022/07/16 11:59:34;;;;;;;8.20;2.20;;;24.90;1.00;;;;;;5038496;28;20430;-85
2022/07/16 12:02:04;;;;;;;5.33;1.50;;;25.20;1.00;;;;;;5054792;28;20482;-84
2022/07/16 12:04:36;;;;;;;5.00;1.67;;;25.10;1.00;;;;;;5057999;28;20836;-84
2022/07/16 12:07:03;;;;;;;4.10;1.00;;;25.20;1.00;;;;;;5055173;28;20456;-84
2022/07/16 12:09:35;;;;;;;4.43;1.53;;;26.20;1.00;;;;;;5034971;28;20535;-85
2022/07/16 12:12:09;;;;;;;6.10;1.37;;;25.30;1.00;;;;;;5039362;28;20475;-84
2022/07/16 12:14:47;;;;;;;5.47;1.10;;;25.20;1.00;;;;;;5054618;28;20467;-84
2022/07/16 12:17:22;;;;;;;4.53;1.10;;;25.00;1.00;;;;;;5035196;28;20452;-83
2022/07/16 12:20:10;;;;;;;5.70;1.80;;;26.20;1.00;;;;;;5036706;28;20447;-84
2022/07/16 12:22:48;;;;;;;7.43;1.40;;;27.00;1.00;;;;;;5013891;28;20495;-84
2022/07/16 12:25:24;;;;;;;4.90;1.17;;;28.00;1.00;;;;;;5028166;28;20462;-84
2022/07/16 12:27:54;;;;;;;5.07;1.10;;;26.30;1.00;;;;;;5057107;28;20450;-84
2022/07/16 12:30:30;;;;;;;4.10;1.10;;;24.70;1.00;;;;;;5037204;28;20972;-85
2022/07/16 12:32:56;;;;;;;5.13;0.97;;;25.10;1.00;;;;;;5042421;28;20470;-85
2022/07/16 12:35:44;;;;;;;5.10;0.90;;;25.60;1.00;;;;;;5036003;28;20452;-85
2022/07/16 12:38:44;;;;;;;6.60;1.33;;;26.20;1.00;;;;;;5037146;28;20475;-85
2022/07/16 12:41:13;;;;;;;3.83;0.90;;;27.20;1.00;;;;;;5040022;28;20480;-84
2022/07/16 12:43:41;;;;;;;4.63;1.13;;;26.60;1.00;;;;;;5033775;28;20933;-85
2022/07/16 12:46:08;;;;;;;7.13;1.50;;;26.80;1.00;;;;;;5033706;28;20430;-84
2022/07/16 12:48:44;;;;;;;10.60;1.67;;;26.70;1.00;;;;;;5034320;28;20463;-84
2022/07/16 12:51:12;;;;;;;4.10;1.00;;;27.40;1.00;;;;;;5033463;28;20996;-84
2022/07/16 12:53:39;;;;;;;4.00;1.10;;;27.50;1.00;;;;;;5036753;28;20456;-85
2022/07/16 12:58:52;;;;;;;5.17;1.50;;;27.80;1.00;;;;;;5042069;28;20454;-85
2022/07/16 13:01:20;;;;;;;4.57;1.17;;;27.50;1.00;;;;;;5033847;28;20451;-85
2022/07/16 13:03:48;;;;;;;4.93;1.03;;;26.10;1.00;;;;;;5033975;28;20448;-83
2022/07/16 13:06:15;;;;;;;4.00;1.20;;;26.70;1.00;;;;;;5036671;28;20459;-85
2022/07/16 13:08:42;;;;;;;5.00;1.53;;;26.90;1.00;;;;;;5051161;28;20811;-84
2022/07/16 13:11:12;;;;;;;4.40;1.17;;;27.60;1.00;;;;;;5052379;28;20463;-85
2022/07/16 13:13:40;;;;;;;9.90;1.70;;;28.00;1.00;;;;;;5052900;28;20462;-85
2022/07/16 13:16:08;;;;;;;7.60;1.83;;;27.40;1.00;;;;;;5046995;28;20430;-84
2022/07/16 13:18:35;;;;;;;5.07;1.47;;;27.90;1.00;;;;;;5038262;28;20447;-84
2022/07/16 13:21:02;;;;;;;4.53;1.07;;;28.30;1.00;;;;;;5053597;28;20443;-86
2022/07/16 13:23:29;;;;;;;5.53;1.37;;;27.20;1.00;;;;;;5047185;28;20453;-87
2022/07/16 13:25:56;;;;;;;5.37;1.37;;;27.10;1.00;;;;;;5041530;28;20452;-84
2022/07/16 13:28:36;;;;;;;4.53;1.03;;;26.80;1.00;;;;;;5033402;28;20479;-89
2022/07/16 13:31:05;;;;;;;4.50;1.50;;;27.20;1.00;;;;;;5033057;28;20463;-87
2022/07/16 13:33:32;;;;;;;5.50;1.27;;;27.70;1.00;;;;;;5035689;28;20452;-88
2022/07/16 13:36:01;;;;;;;5.87;1.33;;;27.10;1.00;;;;;;5034231;28;20520;-86
2022/07/16 13:38:28;;;;;;;5.30;1.40;;;27.50;1.00;;;;;;5033186;28;20452;-88
2022/07/16 13:40:55;;;;;;;8.10;3.03;;;27.10;1.00;;;;;;5032962;28;20458;-88
2022/07/16 13:43:22;;;;;;;4.30;1.13;;;26.90;1.00;;;;;;5033666;28;20970;-88
2022/07/16 13:45:51;;;;;;;4.60;1.43;;;27.00;1.00;;;;;;5032355;28;20809;-87
2022/07/16 13:48:18;;;;;;;4.33;1.27;;;27.30;1.00;;;;;;5051312;28;20951;-88
2022/07/16 13:50:45;;;;;;;5.00;1.23;;;27.00;1.00;;;;;;5052458;28;20479;-87
2022/07/16 13:53:12;;;;;;;4.60;1.30;;;27.20;1.00;;;;;;5034956;28;20471;-85
2022/07/16 13:55:39;;;;;;;6.60;1.00;;;27.40;1.00;;;;;;5034505;28;20463;-90
2022/07/16 13:58:17;;;;;;;4.17;1.07;;;28.30;1.00;;;;;;5049606;28;20947;-88
2022/07/16 14:00:46;;;;;;;5.50;1.13;;;27.50;1.00;;;;;;5054119;28;20447;-87
2022/07/16 14:03:14;;;;;;;4.60;1.50;;;27.50;1.00;;;;;;5037310;28;20556;-86
2022/07/16 14:05:42;;;;;;;5.40;1.30;;;27.00;1.00;;;;;;5033269;28;20454;-86
2022/07/16 14:08:09;;;;;;;5.27;1.10;;;26.90;1.00;;;;;;5046828;28;20813;-87
2022/07/16 14:10:37;;;;;;;4.10;1.00;;;27.40;1.00;;;;;;5034679;28;20430;-87
2022/07/16 14:13:04;;;;;;;4.60;1.30;;;27.00;1.00;;;;;;5038259;28;20822;-86
2022/07/16 14:15:31;;;;;;;4.17;1.20;;;27.20;1.00;;;;;;5032216;28;20464;-88
2022/07/16 14:17:59;;;;;;;5.20;1.10;;;27.20;1.00;;;;;;5053564;28;20458;-87
2022/07/16 14:20:27;;;;;;;5.63;1.23;;;26.90;1.00;;;;;;5056059;28;20455;-86
2022/07/16 14:22:55;;;;;;;4.83;1.30;;;27.70;1.00;;;;;;5039387;28;21017;-86
2022/07/16 14:25:22;;;;;;;4.27;1.00;;;27.00;1.00;;;;;;5038062;28;20456;-88
2022/07/16 14:27:49;;;;;;;5.00;1.20;;;27.20;1.00;;;;;;5052828;28;20447;-87
2022/07/16 14:30:16;;;;;;;4.60;1.20;;;27.20;1.00;;;;;;5056858;28;20459;-88
2022/07/16 14:32:45;;;;;;;7.47;1.30;;;27.70;1.00;;;;;;5042127;28;20486;-88
2022/07/16 14:35:13;;;;;;;5.03;1.30;;;27.50;1.00;;;;;;5036642;28;20919;-85
2022/07/16 14:37:44;;;;;;;3.87;1.00;;;27.00;1.00;;;;;;5053749;28;20426;-86
2022/07/16 14:40:13;;;;;;;8.00;1.40;;;27.50;1.00;;;;;;5056070;28;20855;-87